createdAt,value
2019-03-31T00:01:07.976Z,2.97
2019-03-31T00:03:32.862Z,2.98
2019-03-31T00:06:03.277Z,2.98
2019-03-31T00:08:33.515Z,2.97
2019-03-31T00:11:03.815Z,2.94
2019-03-31T00:13:34.530Z,2.89
2019-03-31T00:16:05.639Z,2.88
2019-03-31T00:18:35.969Z,2.85
2019-03-31T00:21:06.559Z,2.83
2019-03-31T00:23:38.481Z,2.81
2019-03-31T00:26:08.872Z,2.84
2019-03-31T00:28:39.112Z,2.83
2019-03-31T00:31:21.570Z,2.81
2019-03-31T00:33:41.604Z,2.81
2019-03-31T00:36:12.431Z,2.78
2019-03-31T00:38:43.212Z,2.80
2019-03-31T00:41:13.443Z,2.81
2019-03-31T00:43:43.683Z,2.80
2019-03-31T00:46:14.001Z,2.76
2019-03-31T00:48:44.340Z,2.74
2019-03-31T00:51:14.638Z,2.73
2019-03-31T00:53:44.837Z,2.73
2019-03-31T00:56:15.130Z,2.73
2019-03-31T00:58:45.719Z,2.71
2019-03-31T01:01:17.675Z,2.68
2019-03-31T01:03:49.593Z,2.65
2019-03-31T01:06:21.266Z,2.61
2019-03-31T01:08:52.924Z,2.57
2019-03-31T01:11:24.404Z,2.54
2019-03-31T01:13:54.967Z,2.54
2019-03-31T01:16:27.299Z,2.53
2019-03-31T01:18:57.952Z,2.53
2019-03-31T01:21:28.282Z,2.53
2019-03-31T01:23:58.532Z,2.52
2019-03-31T01:26:30.166Z,2.53
2019-03-31T01:29:00.901Z,2.50
2019-03-31T01:31:32.132Z,2.51
2019-03-31T01:34:02.952Z,2.46
2019-03-31T01:36:33.532Z,2.44
2019-03-31T01:39:05.344Z,2.44
2019-03-31T01:41:37.135Z,2.42
2019-03-31T01:44:07.418Z,2.42
2019-03-31T01:46:37.709Z,2.41
2019-03-31T01:49:08.044Z,2.40
2019-03-31T01:51:38.268Z,2.43
2019-03-31T01:54:08.588Z,2.45
2019-03-31T01:56:38.885Z,2.41
2019-03-31T01:59:09.147Z,2.39
2019-03-31T02:01:40.784Z,2.34
2019-03-31T02:04:11.305Z,2.31
2019-03-31T02:06:41.944Z,2.28
2019-03-31T02:09:12.722Z,2.27
2019-03-31T02:11:43.139Z,2.26
2019-03-31T02:14:13.459Z,2.23
2019-03-31T02:16:45.466Z,2.23
2019-03-31T02:19:16.796Z,2.20
2019-03-31T02:21:47.382Z,2.20
2019-03-31T02:24:21.391Z,2.21
2019-03-31T02:26:51.717Z,2.23
2019-03-31T02:29:21.972Z,2.21
2019-03-31T02:31:52.209Z,2.18
2019-03-31T02:34:22.452Z,2.13
2019-03-31T02:36:52.769Z,2.10
2019-03-31T02:39:23.025Z,2.08
2019-03-31T02:41:53.252Z,2.07
2019-03-31T02:44:23.477Z,2.05
2019-03-31T02:46:54.104Z,2.04
2019-03-31T02:49:25.301Z,2.02
2019-03-31T02:51:55.623Z,1.99
2019-03-31T02:54:27.183Z,1.98
2019-03-31T02:56:58.492Z,1.99
2019-03-31T02:59:32.437Z,1.98
2019-03-31T03:02:04.457Z,1.95
2019-03-31T03:04:37.018Z,1.92
2019-03-31T03:07:10.315Z,1.92
2019-03-31T03:09:44.249Z,1.90
2019-03-31T03:12:16.097Z,1.88
2019-03-31T03:14:49.360Z,1.85
2019-03-31T03:17:19.614Z,1.82
2019-03-31T03:19:49.849Z,1.79
2019-03-31T03:22:20.112Z,1.74
2019-03-31T03:24:51.374Z,1.70
2019-03-31T03:27:21.983Z,1.68
2019-03-31T03:29:52.719Z,1.63
2019-03-31T03:32:23.198Z,1.60
2019-03-31T03:34:53.694Z,1.57
2019-03-31T03:37:25.490Z,1.54
2019-03-31T03:39:56.212Z,1.53
2019-03-31T03:42:26.858Z,1.53
2019-03-31T03:44:57.151Z,1.55
2019-03-31T03:47:27.771Z,1.53
2019-03-31T03:49:58.127Z,1.49
2019-03-31T03:52:28.332Z,1.45
2019-03-31T03:54:58.575Z,1.42
2019-03-31T03:57:29.165Z,1.40
2019-03-31T03:59:59.489Z,1.39
2019-03-31T04:02:29.752Z,1.39
2019-03-31T04:05:01.490Z,1.37
2019-03-31T04:07:31.820Z,1.35
2019-03-31T04:10:02.077Z,1.34
2019-03-31T04:12:33.724Z,1.35
2019-03-31T04:15:04.467Z,1.36
2019-03-31T04:17:36.181Z,1.43
2019-03-31T04:20:07.416Z,1.47
2019-03-31T04:22:39.277Z,1.46
2019-03-31T04:25:11.257Z,1.45
2019-03-31T04:27:41.946Z,1.47
2019-03-31T04:30:12.629Z,1.51
2019-03-31T04:32:42.939Z,1.55
2019-03-31T04:35:13.210Z,1.60
2019-03-31T04:37:43.783Z,1.63
2019-03-31T04:40:14.492Z,1.66
2019-03-31T04:42:44.779Z,1.73
2019-03-31T04:45:15.091Z,1.83
2019-03-31T04:47:47.253Z,1.89
2019-03-31T04:50:17.561Z,2.00
2019-03-31T04:52:47.806Z,2.07
2019-03-31T04:55:18.097Z,2.18
2019-03-31T04:57:48.432Z,2.28
2019-03-31T05:00:18.761Z,2.41
2019-03-31T05:02:49.021Z,2.52
2019-03-31T05:05:19.282Z,2.62
2019-03-31T05:07:49.870Z,2.73
2019-03-31T05:10:20.175Z,2.89
2019-03-31T05:12:50.401Z,3.05
2019-03-31T05:15:20.708Z,3.23
2019-03-31T05:17:50.976Z,3.70
2019-03-31T05:20:21.615Z,4.12
2019-03-31T05:22:52.915Z,4.57
2019-03-31T05:25:24.007Z,4.96
2019-03-31T05:27:56.286Z,5.36
2019-03-31T05:30:26.957Z,5.75
2019-03-31T05:32:57.230Z,5.84
2019-03-31T05:35:27.845Z,6.04
2019-03-31T05:37:58.157Z,6.91
2019-03-31T05:40:30.745Z,7.87
2019-03-31T05:43:00.803Z,8.94
2019-03-31T05:45:31.511Z,10.67
2019-03-31T05:48:01.908Z,12.36
2019-03-31T05:50:32.500Z,13.10
2019-03-31T05:53:02.870Z,13.88
2019-03-31T05:55:33.079Z,14.32
2019-03-31T05:58:03.827Z,15.24
2019-03-31T06:00:37.211Z,15.42
2019-03-31T06:03:07.820Z,15.54
2019-03-31T06:05:38.655Z,15.99
2019-03-31T06:08:10.396Z,16.10
2019-03-31T06:10:41.012Z,16.36
2019-03-31T06:13:11.378Z,17.04
2019-03-31T06:15:41.617Z,17.83
2019-03-31T06:18:11.882Z,18.82
2019-03-31T06:20:42.622Z,19.44
2019-03-31T06:23:12.927Z,19.90
2019-03-31T06:25:43.225Z,20.47
2019-03-31T06:28:14.986Z,20.91
2019-03-31T06:30:45.705Z,21.30
2019-03-31T06:33:15.996Z,21.16
2019-03-31T06:35:46.667Z,20.74
2019-03-31T06:38:18.991Z,20.38
2019-03-31T06:40:56.796Z,20.18
2019-03-31T06:43:27.451Z,20.40
2019-03-31T06:45:59.036Z,20.64
2019-03-31T06:48:29.640Z,21.52
2019-03-31T06:51:01.001Z,22.39
2019-03-31T06:53:31.609Z,22.74
2019-03-31T06:56:02.276Z,22.94
2019-03-31T06:58:32.975Z,22.86
2019-03-31T07:01:03.629Z,22.94
2019-03-31T07:03:33.930Z,23.45
2019-03-31T07:06:04.152Z,23.99
2019-03-31T07:08:34.819Z,24.51
2019-03-31T07:11:05.460Z,25.03
2019-03-31T07:13:36.039Z,25.42
2019-03-31T07:16:06.348Z,26.17
2019-03-31T07:18:36.598Z,26.62
2019-03-31T07:21:06.838Z,27.19
2019-03-31T07:23:37.494Z,27.85
2019-03-31T07:26:08.110Z,28.05
2019-03-31T07:28:38.714Z,28.54
2019-03-31T07:31:09.359Z,29.50
2019-03-31T07:33:39.668Z,30.56
2019-03-31T07:36:09.896Z,30.76
2019-03-31T07:38:40.516Z,31.58
2019-03-31T07:41:12.916Z,32.28
2019-03-31T07:43:43.095Z,33.15
2019-03-31T07:46:13.823Z,33.34
2019-03-31T07:48:45.783Z,33.64
2019-03-31T07:51:18.130Z,34.13
2019-03-31T07:53:48.742Z,34.25
2019-03-31T07:56:19.061Z,34.49
2019-03-31T07:58:50.412Z,34.75
2019-03-31T08:01:22.065Z,34.90
2019-03-31T08:03:52.365Z,34.93
2019-03-31T08:06:22.946Z,35.03
2019-03-31T08:08:53.628Z,35.04
2019-03-31T08:11:24.313Z,35.23
2019-03-31T08:13:55.954Z,35.43
2019-03-31T08:16:26.150Z,35.45
2019-03-31T08:18:57.814Z,35.64
2019-03-31T08:21:28.482Z,36.14
2019-03-31T08:23:58.785Z,36.71
2019-03-31T08:26:29.073Z,36.53
2019-03-31T08:28:59.763Z,36.73
2019-03-31T08:31:30.527Z,36.61
2019-03-31T08:34:00.858Z,37.26
2019-03-31T08:36:31.089Z,37.05
2019-03-31T08:39:01.382Z,36.65
2019-03-31T08:41:33.484Z,36.64
2019-03-31T08:44:05.808Z,36.22
2019-03-31T08:46:36.817Z,36.16
2019-03-31T08:49:08.758Z,36.40
2019-03-31T08:51:39.468Z,36.22
2019-03-31T08:54:10.149Z,36.09
2019-03-31T08:56:40.438Z,35.78
2019-03-31T08:59:11.231Z,35.90
2019-03-31T09:01:42.543Z,35.79
2019-03-31T09:04:12.867Z,35.17
2019-03-31T09:06:43.151Z,33.78
2019-03-31T09:09:13.369Z,32.98
2019-03-31T09:11:43.705Z,32.98
2019-03-31T09:14:14.418Z,33.30
2019-03-31T09:16:45.183Z,33.65
2019-03-31T09:19:15.489Z,33.73
2019-03-31T09:21:46.087Z,32.99
2019-03-31T09:24:16.444Z,31.29
2019-03-31T09:26:48.720Z,30.81
2019-03-31T09:29:19.467Z,30.22
2019-03-31T09:31:50.998Z,28.69
2019-03-31T09:34:21.363Z,27.86
2019-03-31T09:36:51.643Z,27.55
2019-03-31T09:39:22.242Z,27.31
2019-03-31T09:41:52.911Z,27.17
2019-03-31T09:44:23.562Z,26.77
2019-03-31T09:46:54.255Z,25.97
2019-03-31T09:49:24.927Z,26.73
2019-03-31T09:51:55.217Z,27.24
2019-03-31T09:54:25.459Z,27.70
2019-03-31T09:56:55.760Z,27.68
2019-03-31T09:59:26.011Z,27.78
2019-03-31T10:01:56.604Z,27.56
2019-03-31T10:04:27.322Z,27.28
2019-03-31T10:06:58.170Z,26.81
2019-03-31T10:09:28.533Z,26.74
2019-03-31T10:11:59.619Z,26.68
2019-03-31T10:14:29.939Z,26.46
2019-03-31T10:17:00.179Z,26.28
2019-03-31T10:19:30.457Z,26.03
2019-03-31T10:22:01.884Z,25.84
2019-03-31T10:24:32.510Z,25.95
2019-03-31T10:27:03.529Z,25.92
2019-03-31T10:29:35.499Z,25.65
2019-03-31T10:32:06.887Z,25.27
2019-03-31T10:34:38.836Z,25.34
2019-03-31T10:37:09.155Z,25.33
2019-03-31T10:39:39.745Z,25.23
2019-03-31T10:42:10.069Z,24.59
2019-03-31T10:44:40.294Z,24.05
2019-03-31T10:47:12.215Z,23.49
2019-03-31T10:49:42.739Z,23.21
2019-03-31T10:52:13.056Z,22.71
2019-03-31T10:54:43.642Z,22.50
2019-03-31T10:57:14.430Z,22.32
2019-03-31T10:59:46.260Z,22.35
2019-03-31T11:02:16.856Z,22.50
2019-03-31T11:04:47.312Z,22.40
2019-03-31T11:07:17.539Z,22.33
2019-03-31T11:09:47.984Z,22.40
2019-03-31T11:12:18.256Z,22.40
2019-03-31T11:14:48.913Z,22.26
2019-03-31T11:17:19.527Z,22.14
2019-03-31T11:19:50.090Z,22.13
2019-03-31T11:22:35.596Z,21.81
2019-03-31T11:25:20.297Z,21.38
2019-03-31T11:27:43.696Z,21.40
2019-03-31T11:30:13.658Z,21.67
2019-03-31T11:32:43.965Z,21.89
2019-03-31T11:35:14.361Z,22.13
2019-03-31T11:37:44.631Z,22.25
2019-03-31T11:40:15.239Z,22.50
2019-03-31T11:42:45.487Z,22.43
2019-03-31T11:45:16.676Z,22.36
2019-03-31T11:47:46.898Z,22.28
2019-03-31T11:50:17.605Z,22.19
2019-03-31T11:52:47.872Z,22.15
2019-03-31T11:55:18.122Z,22.00
2019-03-31T11:57:48.377Z,21.76
2019-03-31T12:00:24.829Z,21.66
2019-03-31T12:02:55.208Z,21.29
2019-03-31T12:05:25.830Z,20.89
2019-03-31T12:07:56.212Z,20.51
2019-03-31T12:10:26.446Z,20.24
2019-03-31T12:12:56.701Z,20.25
2019-03-31T12:15:26.941Z,19.97
2019-03-31T12:17:57.178Z,19.99
2019-03-31T12:20:27.790Z,19.92
2019-03-31T12:22:58.218Z,19.59
2019-03-31T12:25:28.457Z,19.44
2019-03-31T12:27:58.769Z,19.26
2019-03-31T12:30:29.146Z,19.16
2019-03-31T12:33:00.912Z,19.10
2019-03-31T12:35:31.201Z,19.00
2019-03-31T12:38:01.907Z,18.67
2019-03-31T12:40:34.626Z,18.45
2019-03-31T12:43:05.463Z,18.19
2019-03-31T12:45:35.830Z,18.22
2019-03-31T12:48:06.563Z,18.26
2019-03-31T12:50:36.898Z,18.25
2019-03-31T12:53:07.215Z,18.18
2019-03-31T12:55:37.512Z,18.03
2019-03-31T12:58:07.764Z,17.66
2019-03-31T13:00:37.987Z,17.26
2019-03-31T13:03:09.201Z,17.23
2019-03-31T13:05:39.457Z,17.39
2019-03-31T13:08:10.058Z,17.42
2019-03-31T13:10:41.867Z,17.54
2019-03-31T13:13:12.618Z,17.76
2019-03-31T13:15:42.990Z,17.89
2019-03-31T13:18:15.119Z,17.87
2019-03-31T13:20:45.499Z,17.65
2019-03-31T13:23:16.106Z,17.37
2019-03-31T13:25:46.422Z,17.14
2019-03-31T13:28:16.657Z,16.94
2019-03-31T13:30:46.911Z,16.74
2019-03-31T13:33:17.138Z,16.55
2019-03-31T13:35:47.803Z,16.52
2019-03-31T13:38:18.517Z,16.42
2019-03-31T13:40:50.595Z,16.29
2019-03-31T13:43:21.251Z,16.22
2019-03-31T13:45:51.504Z,16.07
2019-03-31T13:48:21.728Z,16.08
2019-03-31T13:50:51.978Z,16.17
2019-03-31T13:53:22.232Z,16.34
2019-03-31T13:55:52.480Z,16.53
2019-03-31T13:58:23.545Z,16.75
2019-03-31T14:00:57.070Z,17.08
2019-03-31T14:03:26.443Z,17.31
2019-03-31T14:05:56.706Z,17.57
2019-03-31T14:08:26.950Z,17.54
2019-03-31T14:10:57.193Z,17.55
2019-03-31T14:13:27.454Z,17.50
2019-03-31T14:15:57.854Z,17.40
2019-03-31T14:18:28.169Z,17.37
2019-03-31T14:20:58.742Z,17.28
2019-03-31T14:23:31.733Z,17.22
2019-03-31T14:26:02.040Z,16.93
2019-03-31T14:28:32.673Z,16.66
2019-03-31T14:31:03.330Z,16.43
2019-03-31T14:33:34.130Z,16.33
2019-03-31T14:36:04.491Z,16.08
2019-03-31T14:38:40.372Z,15.85
2019-03-31T14:41:06.768Z,15.66
2019-03-31T14:43:36.989Z,15.38
2019-03-31T14:46:07.619Z,15.34
2019-03-31T14:48:38.305Z,15.39
2019-03-31T14:51:08.699Z,15.52
2019-03-31T14:53:39.312Z,15.61
2019-03-31T14:56:09.639Z,15.47
2019-03-31T14:58:39.963Z,15.39
2019-03-31T15:01:10.301Z,14.90
2019-03-31T15:03:40.890Z,14.72
2019-03-31T15:06:11.568Z,14.61
2019-03-31T15:08:53.767Z,14.58
2019-03-31T15:11:13.819Z,14.51
2019-03-31T15:13:44.071Z,14.49
2019-03-31T15:16:14.299Z,14.45
2019-03-31T15:18:44.607Z,14.39
2019-03-31T15:21:14.825Z,14.10
2019-03-31T15:23:45.095Z,13.80
2019-03-31T15:26:15.722Z,13.61
2019-03-31T15:28:46.017Z,13.53
2019-03-31T15:31:16.635Z,13.39
2019-03-31T15:33:47.310Z,13.28
2019-03-31T15:36:18.021Z,13.30
2019-03-31T15:38:48.357Z,13.18
2019-03-31T15:41:21.442Z,13.20
2019-03-31T15:43:50.682Z,13.26
2019-03-31T15:46:24.389Z,13.23
2019-03-31T15:48:52.834Z,13.20
2019-03-31T15:51:23.426Z,13.14
2019-03-31T15:53:54.870Z,12.97
2019-03-31T15:56:25.233Z,12.81
2019-03-31T15:58:55.623Z,12.60
2019-03-31T16:01:26.264Z,12.43
2019-03-31T16:03:56.577Z,12.30
2019-03-31T16:06:26.930Z,12.18
2019-03-31T16:08:57.194Z,12.05
2019-03-31T16:11:27.413Z,11.96
2019-03-31T16:13:57.662Z,11.86
2019-03-31T16:16:30.613Z,11.84
2019-03-31T16:18:59.923Z,11.82
2019-03-31T16:21:30.327Z,11.79
2019-03-31T16:24:01.847Z,11.73
2019-03-31T16:26:32.064Z,11.63
2019-03-31T16:29:02.677Z,11.54
2019-03-31T16:31:33.059Z,11.44
2019-03-31T16:34:03.302Z,11.32
2019-03-31T16:36:33.525Z,11.24
2019-03-31T16:39:05.629Z,11.14
2019-03-31T16:41:36.146Z,11.11
2019-03-31T16:44:06.389Z,11.03
2019-03-31T16:46:39.801Z,10.96
2019-03-31T16:49:08.970Z,10.88
2019-03-31T16:51:39.865Z,10.75
2019-03-31T16:54:10.088Z,10.71
2019-03-31T16:56:40.322Z,10.56
2019-03-31T16:59:10.597Z,10.42
2019-03-31T17:01:41.187Z,10.33
2019-03-31T17:04:11.511Z,10.22
2019-03-31T17:06:41.768Z,10.11
2019-03-31T17:09:11.995Z,10.15
2019-03-31T17:11:43.024Z,10.13
2019-03-31T17:14:13.339Z,10.08
2019-03-31T17:16:43.561Z,9.98
2019-03-31T17:19:13.781Z,9.93
2019-03-31T17:21:44.058Z,9.79
2019-03-31T17:24:14.637Z,9.68
2019-03-31T17:26:44.928Z,9.53
2019-03-31T17:29:15.172Z,9.40
2019-03-31T17:31:47.293Z,9.29
2019-03-31T17:34:17.985Z,9.17
2019-03-31T17:36:48.271Z,9.08
2019-03-31T17:39:18.893Z,8.97
2019-03-31T17:41:49.530Z,8.85
2019-03-31T17:44:19.829Z,8.77
2019-03-31T17:46:50.065Z,8.68
2019-03-31T17:49:21.047Z,8.63
2019-03-31T17:51:51.702Z,8.55
2019-03-31T17:54:21.995Z,8.49
2019-03-31T17:56:52.274Z,8.40
2019-03-31T17:59:22.850Z,8.38
2019-03-31T18:01:53.128Z,8.26
2019-03-31T18:04:23.364Z,8.23
2019-03-31T18:06:57.130Z,8.16
2019-03-31T18:09:27.785Z,8.09
2019-03-31T18:11:58.063Z,8.09
2019-03-31T18:14:28.306Z,8.00
2019-03-31T18:16:58.529Z,7.98
2019-03-31T18:19:29.312Z,7.95
2019-03-31T18:22:00.007Z,8.02
2019-03-31T18:24:30.286Z,8.03
2019-03-31T18:27:00.554Z,8.01
2019-03-31T18:29:32.086Z,8.03
2019-03-31T18:32:03.290Z,8.08
2019-03-31T18:34:33.574Z,8.21
2019-03-31T18:37:04.156Z,8.23
2019-03-31T18:39:34.444Z,8.18
2019-03-31T18:42:04.748Z,8.22
2019-03-31T18:44:35.014Z,8.18
2019-03-31T18:47:05.386Z,8.11
2019-03-31T18:49:35.419Z,8.08
2019-03-31T18:52:06.703Z,7.98
2019-03-31T18:54:38.579Z,7.99
2019-03-31T18:57:10.800Z,7.90
2019-03-31T18:59:54.793Z,7.87
2019-03-31T19:02:29.688Z,7.78
2019-03-31T19:05:04.350Z,7.67
2019-03-31T19:07:52.644Z,7.54
2019-03-31T19:10:27.013Z,7.42
2019-03-31T19:13:05.018Z,7.33
2019-03-31T19:15:53.524Z,7.24
2019-03-31T19:18:25.798Z,7.23
2019-03-31T19:21:11.352Z,7.18
2019-03-31T19:23:59.879Z,7.09
2019-03-31T19:26:48.776Z,7.00
2019-03-31T19:29:18.704Z,7.00
2019-03-31T19:31:53.270Z,6.90
2019-03-31T19:34:34.271Z,6.83
2019-03-31T19:37:06.575Z,6.78
2019-03-31T19:39:42.491Z,6.77
2019-03-31T19:42:12.881Z,6.85
2019-03-31T19:44:44.667Z,6.77
2019-03-31T19:47:16.971Z,6.71
2019-03-31T19:49:51.900Z,6.63
2019-03-31T19:52:40.568Z,6.66
2019-03-31T19:55:18.273Z,6.54
2019-03-31T19:58:05.396Z,6.72
2019-03-31T20:00:49.611Z,6.81
2019-03-31T20:03:40.121Z,6.92
2019-03-31T20:06:16.350Z,6.85
2019-03-31T20:08:51.498Z,6.73
2019-03-31T20:11:26.316Z,6.59
2019-03-31T20:14:01.317Z,6.48
2019-03-31T20:16:39.824Z,6.29
2019-03-31T20:19:27.401Z,6.12
2019-03-31T20:22:10.913Z,6.02
2019-03-31T20:24:45.837Z,5.87
2019-03-31T20:27:18.117Z,5.77
2019-03-31T20:30:04.925Z,5.62
2019-03-31T20:32:43.088Z,5.54
2019-03-31T20:35:15.378Z,5.40
2019-03-31T20:38:04.104Z,5.26
2019-03-31T20:40:36.089Z,5.21
2019-03-31T20:43:15.142Z,4.99
2019-03-31T20:45:45.525Z,4.91
2019-03-31T20:48:16.135Z,4.90
2019-03-31T20:50:47.729Z,4.88
2019-03-31T20:53:17.948Z,4.87
2019-03-31T20:55:48.239Z,4.68
2019-03-31T20:58:18.570Z,4.56
2019-03-31T21:00:49.021Z,4.45
2019-03-31T21:03:19.614Z,4.45
2019-03-31T21:05:49.902Z,4.32
2019-03-31T21:08:20.162Z,4.27
2019-03-31T21:10:50.723Z,4.19
2019-03-31T21:13:21.750Z,4.27
2019-03-31T21:15:52.335Z,4.17
2019-03-31T21:18:23.017Z,4.12
2019-03-31T21:20:53.645Z,3.99
2019-03-31T21:23:24.055Z,3.88
2019-03-31T21:25:54.663Z,3.92
2019-03-31T21:28:24.970Z,3.80
2019-03-31T21:30:55.158Z,3.65
2019-03-31T21:33:25.832Z,3.62
2019-03-31T21:35:56.134Z,3.58
2019-03-31T21:38:26.748Z,3.63
2019-03-31T21:40:57.427Z,3.48
2019-03-31T21:43:27.801Z,3.34
2019-03-31T21:45:58.015Z,3.30
2019-03-31T21:48:28.289Z,3.26
2019-03-31T21:50:58.522Z,3.11
2019-03-31T21:53:28.747Z,2.95
2019-03-31T21:55:59.092Z,2.84
2019-03-31T21:58:29.356Z,2.71
2019-03-31T22:01:00.535Z,2.61
2019-03-31T22:03:31.858Z,2.53
2019-03-31T22:06:02.110Z,2.44
2019-03-31T22:08:32.363Z,2.33
2019-03-31T22:11:02.962Z,2.25
2019-03-31T22:13:33.261Z,2.15
2019-03-31T22:16:03.566Z,2.07
2019-03-31T22:18:33.862Z,1.98
2019-03-31T22:21:04.085Z,1.91
2019-03-31T22:23:34.768Z,1.83
2019-03-31T22:26:05.134Z,1.77
2019-03-31T22:28:37.410Z,1.70
2019-03-31T22:31:08.026Z,1.61
2019-03-31T22:33:38.274Z,1.54
2019-03-31T22:36:25.168Z,1.46
2019-03-31T22:38:55.457Z,1.39
2019-03-31T22:41:25.706Z,1.33
2019-03-31T22:43:55.932Z,1.27
2019-03-31T22:46:26.180Z,1.25
2019-03-31T22:48:56.740Z,1.25
2019-03-31T22:51:27.372Z,1.24
2019-03-31T22:53:57.721Z,1.16
2019-03-31T22:56:27.923Z,1.11
2019-03-31T22:58:58.193Z,1.08
2019-03-31T23:01:28.743Z,1.03
2019-03-31T23:03:59.057Z,1.00
2019-03-31T23:06:29.297Z,0.97
2019-03-31T23:08:59.543Z,0.94
2019-03-31T23:11:30.112Z,0.86
2019-03-31T23:14:00.455Z,0.78
2019-03-31T23:16:30.684Z,0.77
2019-03-31T23:19:00.893Z,0.71
2019-03-31T23:21:31.476Z,0.69
2019-03-31T23:24:01.769Z,0.63
2019-03-31T23:26:32.424Z,0.62
2019-03-31T23:29:02.703Z,0.57
2019-03-31T23:31:33.302Z,0.52
2019-03-31T23:34:03.662Z,0.51
2019-03-31T23:36:34.315Z,0.52
2019-03-31T23:39:07.935Z,0.50
2019-03-31T23:41:38.229Z,0.47
2019-03-31T23:44:08.491Z,0.44
2019-03-31T23:46:38.760Z,0.44
2019-03-31T23:49:09.022Z,0.43
2019-03-31T23:51:39.287Z,0.45
2019-03-31T23:54:09.548Z,0.49
2019-03-31T23:56:39.782Z,0.46
2019-03-31T23:59:10.037Z,0.61
